createdAt,value
2017-07-08T00:00:29.921Z,19.00
2017-07-08T00:02:57.453Z,18.90
2017-07-08T00:05:25.030Z,18.80
2017-07-08T00:07:52.575Z,18.80
2017-07-08T00:10:20.151Z,18.70
2017-07-08T00:12:47.719Z,18.70
2017-07-08T00:15:15.292Z,18.60
2017-07-08T00:17:42.869Z,18.60
2017-07-08T00:20:10.406Z,18.50
2017-07-08T00:22:37.966Z,18.40
2017-07-08T00:25:05.498Z,18.40
2017-07-08T00:27:33.076Z,18.40
2017-07-08T00:30:00.638Z,18.40
2017-07-08T00:32:28.189Z,18.50
2017-07-08T00:34:55.751Z,18.50
2017-07-08T00:37:23.290Z,18.40
2017-07-08T00:39:50.949Z,18.40
2017-07-08T00:42:18.490Z,18.30
2017-07-08T00:44:46.099Z,18.30
2017-07-08T00:47:13.657Z,18.30
2017-07-08T00:49:41.189Z,18.20
2017-07-08T00:52:08.765Z,18.20
2017-07-08T00:54:36.315Z,18.10
2017-07-08T00:57:03.918Z,18.20
2017-07-08T00:59:31.458Z,18.30
2017-07-08T01:01:59.001Z,18.10
2017-07-08T01:04:26.599Z,18.10
2017-07-08T01:06:54.139Z,17.80
2017-07-08T01:09:21.714Z,17.80
2017-07-08T01:11:49.262Z,17.70
2017-07-08T01:14:16.843Z,17.80
2017-07-08T01:16:44.403Z,17.80
2017-07-08T01:19:11.976Z,17.90
2017-07-08T01:21:39.561Z,18.10
2017-07-08T01:24:07.106Z,18.00
2017-07-08T01:26:34.654Z,17.80
2017-07-08T01:29:02.226Z,17.60
2017-07-08T01:31:29.766Z,17.50
2017-07-08T01:33:57.329Z,17.40
2017-07-08T01:36:24.865Z,17.50
2017-07-08T01:38:52.451Z,17.50
2017-07-08T01:41:19.997Z,17.50
2017-07-08T01:43:47.529Z,17.40
2017-07-08T01:46:15.097Z,17.40
2017-07-08T01:48:42.649Z,17.50
2017-07-08T01:51:10.236Z,17.50
2017-07-08T01:53:37.809Z,17.30
2017-07-08T01:56:05.354Z,17.10
2017-07-08T01:58:32.941Z,17.10
2017-07-08T02:01:00.496Z,17.00
2017-07-08T02:03:28.042Z,17.00
2017-07-08T02:05:55.638Z,17.00
2017-07-08T02:08:23.191Z,16.90
2017-07-08T02:10:50.753Z,16.90
2017-07-08T02:13:18.320Z,16.90
2017-07-08T02:15:45.858Z,16.80
2017-07-08T02:18:13.427Z,16.80
2017-07-08T02:20:41.253Z,16.80
2017-07-08T02:23:08.844Z,16.90
2017-07-08T02:25:36.390Z,16.90
2017-07-08T02:28:03.976Z,16.80
2017-07-08T02:30:31.513Z,17.00
2017-07-08T02:32:59.085Z,17.00
2017-07-08T02:35:26.650Z,17.00
2017-07-08T02:37:54.194Z,17.10
2017-07-08T02:40:21.815Z,17.00
2017-07-08T02:42:49.355Z,16.80
2017-07-08T02:45:16.889Z,16.80
2017-07-08T02:47:44.574Z,16.80
2017-07-08T02:50:12.130Z,16.70
2017-07-08T02:52:39.687Z,16.70
2017-07-08T02:55:07.278Z,16.60
2017-07-08T02:57:34.837Z,16.60
2017-07-08T03:00:02.379Z,16.60
2017-07-08T03:02:30.032Z,16.60
2017-07-08T03:04:57.607Z,16.60
2017-07-08T03:07:25.225Z,16.60
2017-07-08T03:09:52.769Z,16.60
2017-07-08T03:12:20.698Z,16.60
2017-07-08T03:14:48.330Z,16.60
2017-07-08T03:17:15.869Z,16.60
2017-07-08T03:19:43.407Z,16.40
2017-07-08T03:22:10.982Z,16.50
2017-07-08T03:24:38.523Z,16.40
2017-07-08T03:27:06.286Z,16.50
2017-07-08T03:29:33.862Z,16.40
2017-07-08T03:32:01.428Z,16.50
2017-07-08T03:34:28.969Z,16.50
2017-07-08T03:36:56.538Z,16.50
2017-07-08T03:39:24.081Z,16.50
2017-07-08T03:41:51.669Z,16.50
2017-07-08T03:44:19.206Z,16.40
2017-07-08T03:46:46.785Z,16.50
2017-07-08T03:49:14.383Z,16.40
2017-07-08T03:51:41.930Z,16.30
2017-07-08T03:54:09.523Z,16.30
2017-07-08T03:56:37.323Z,16.30
2017-07-08T03:59:04.910Z,16.30
2017-07-08T04:01:32.747Z,16.30
2017-07-08T04:04:00.335Z,16.30
2017-07-08T04:06:27.885Z,16.30
2017-07-08T04:08:55.454Z,16.20
2017-07-08T04:11:23.010Z,16.30
2017-07-08T04:13:50.588Z,16.40
2017-07-08T04:16:18.140Z,16.30
2017-07-08T04:18:45.770Z,16.30
2017-07-08T04:21:13.317Z,16.50
2017-07-08T04:23:40.857Z,16.40
2017-07-08T04:26:08.434Z,16.30
2017-07-08T04:28:35.969Z,16.40
2017-07-08T04:31:03.518Z,16.30
2017-07-08T04:33:31.107Z,16.30
2017-07-08T04:35:58.672Z,16.30
2017-07-08T04:38:26.222Z,16.40
2017-07-08T04:40:53.806Z,16.40
2017-07-08T04:43:21.349Z,16.60
2017-07-08T04:45:48.942Z,16.70
2017-07-08T04:48:16.496Z,16.90
2017-07-08T04:50:44.088Z,17.00
2017-07-08T04:53:11.962Z,17.10
2017-07-08T04:55:39.502Z,17.10
2017-07-08T04:58:07.059Z,17.20
2017-07-08T05:00:34.649Z,17.30
2017-07-08T05:03:02.209Z,17.30
2017-07-08T05:05:29.793Z,17.40
2017-07-08T05:07:57.329Z,17.50
2017-07-08T05:10:24.869Z,17.50
2017-07-08T05:12:52.778Z,17.50
2017-07-08T05:15:20.322Z,17.60
2017-07-08T05:17:47.907Z,17.80
2017-07-08T05:20:15.458Z,17.80
2017-07-08T05:22:42.993Z,17.90
2017-07-08T05:25:10.573Z,17.90
2017-07-08T05:27:38.135Z,17.80
2017-07-08T05:30:05.719Z,18.00
2017-07-08T05:32:33.252Z,18.20
2017-07-08T05:35:00.839Z,18.40
2017-07-08T05:37:28.387Z,18.40
2017-07-08T05:39:55.929Z,18.40
2017-07-08T05:42:23.502Z,18.50
2017-07-08T05:44:51.068Z,18.60
2017-07-08T05:47:18.661Z,18.60
2017-07-08T05:49:46.214Z,18.70
2017-07-08T05:52:13.769Z,18.70
2017-07-08T05:54:41.359Z,18.90
2017-07-08T05:57:08.901Z,19.10
2017-07-08T05:59:36.447Z,19.30
2017-07-08T06:02:04.035Z,19.60
2017-07-08T06:04:31.593Z,19.90
2017-07-08T06:06:59.135Z,20.10
2017-07-08T06:09:26.742Z,20.20
2017-07-08T06:11:54.279Z,20.30
2017-07-08T06:14:21.822Z,20.50
2017-07-08T06:16:49.414Z,20.90
2017-07-08T06:19:16.954Z,21.80
2017-07-08T06:21:45.309Z,22.60
2017-07-08T06:24:12.877Z,23.30
2017-07-08T06:26:40.451Z,23.90
2017-07-08T06:29:07.986Z,24.10
2017-07-08T06:31:35.563Z,24.40
2017-07-08T06:34:03.150Z,24.60
2017-07-08T06:36:30.687Z,24.70
2017-07-08T06:38:58.248Z,25.10
2017-07-08T06:41:25.826Z,25.20
2017-07-08T06:43:53.378Z,25.20
2017-07-08T06:46:20.974Z,25.20
2017-07-08T06:48:49.158Z,25.10
2017-07-08T06:51:16.711Z,25.20
2017-07-08T06:53:44.286Z,25.30
2017-07-08T06:56:11.825Z,25.50
2017-07-08T06:58:39.358Z,25.70
2017-07-08T07:01:06.956Z,25.40
2017-07-08T07:03:34.493Z,25.20
2017-07-08T07:06:02.029Z,25.00
2017-07-08T07:08:29.593Z,25.30
2017-07-08T07:10:57.150Z,25.40
2017-07-08T07:13:24.721Z,25.30
2017-07-08T07:15:52.310Z,25.50
2017-07-08T07:18:19.847Z,25.40
2017-07-08T07:20:47.377Z,25.10
2017-07-08T07:23:14.940Z,25.30
2017-07-08T07:25:42.505Z,25.30
2017-07-08T07:28:10.142Z,25.10
2017-07-08T07:30:37.666Z,25.10
2017-07-08T07:33:05.234Z,25.00
2017-07-08T07:35:32.773Z,25.10
2017-07-08T07:38:00.333Z,25.30
2017-07-08T07:40:27.862Z,25.30
2017-07-08T07:42:55.471Z,25.30
2017-07-08T07:45:23.005Z,25.30
2017-07-08T07:47:50.548Z,25.30
2017-07-08T07:50:18.113Z,25.10
2017-07-08T07:52:46.560Z,25.30
2017-07-08T07:55:14.725Z,25.40
2017-07-08T07:57:42.247Z,25.30
2017-07-08T08:00:09.783Z,25.40
2017-07-08T08:02:37.351Z,25.20
2017-07-08T08:05:04.928Z,25.20
2017-07-08T08:07:33.106Z,25.10
2017-07-08T08:10:00.685Z,25.40
2017-07-08T08:12:28.228Z,25.50
2017-07-08T08:14:55.802Z,25.40
2017-07-08T08:17:23.340Z,25.40
2017-07-08T08:19:50.903Z,25.50
2017-07-08T08:22:18.461Z,25.50
2017-07-08T08:24:46.034Z,25.50
2017-07-08T08:27:13.613Z,25.40
2017-07-08T08:29:41.139Z,25.60
2017-07-08T08:32:08.691Z,25.60
2017-07-08T08:34:36.261Z,25.70
2017-07-08T08:37:03.801Z,25.50
2017-07-08T08:39:31.375Z,25.50
2017-07-08T08:41:58.932Z,25.60
2017-07-08T08:44:26.511Z,25.50
2017-07-08T08:46:54.047Z,25.50
2017-07-08T08:49:21.595Z,25.60
2017-07-08T08:51:49.167Z,25.60
2017-07-08T08:54:16.858Z,25.70
2017-07-08T08:56:45.246Z,25.70
2017-07-08T08:59:12.830Z,25.70
2017-07-08T09:01:40.366Z,25.80
2017-07-08T09:04:07.958Z,26.10
2017-07-08T09:06:35.498Z,26.20
2017-07-08T09:09:04.069Z,26.20
2017-07-08T09:11:31.641Z,26.60
2017-07-08T09:13:59.207Z,26.70
2017-07-08T09:16:26.871Z,27.00
2017-07-08T09:18:54.400Z,26.80
2017-07-08T09:21:21.992Z,27.00
2017-07-08T09:23:49.518Z,27.20
2017-07-08T09:26:17.063Z,27.20
2017-07-08T09:28:45.394Z,27.00
2017-07-08T09:31:13.022Z,27.00
2017-07-08T09:33:40.614Z,26.80
2017-07-08T09:36:08.183Z,26.70
2017-07-08T09:38:35.758Z,26.80
2017-07-08T09:41:03.344Z,26.70
2017-07-08T09:43:30.881Z,26.40
2017-07-08T09:45:58.429Z,26.60
2017-07-08T09:48:25.995Z,26.30
2017-07-08T09:50:53.563Z,26.20
2017-07-08T09:53:21.101Z,26.30
2017-07-08T09:55:48.678Z,26.50
2017-07-08T09:58:16.228Z,26.60
2017-07-08T10:00:44.709Z,26.70
2017-07-08T10:03:12.305Z,26.50
2017-07-08T10:05:39.835Z,26.60
2017-07-08T10:08:07.370Z,26.70
2017-07-08T10:10:34.945Z,26.80
2017-07-08T10:13:02.571Z,26.70
2017-07-08T10:15:30.134Z,26.70
2017-07-08T10:17:57.757Z,26.70
2017-07-08T10:20:25.330Z,26.70
2017-07-08T10:22:52.890Z,26.80
2017-07-08T10:25:20.467Z,27.00
2017-07-08T10:27:48.019Z,27.00
2017-07-08T10:30:15.589Z,26.80
2017-07-08T10:32:43.689Z,27.00
2017-07-08T10:35:11.232Z,27.00
2017-07-08T10:37:38.808Z,27.10
2017-07-08T10:40:06.598Z,27.20
2017-07-08T10:42:34.193Z,27.50
2017-07-08T10:45:01.736Z,27.70
2017-07-08T10:47:29.282Z,27.60
2017-07-08T10:49:56.897Z,27.70
2017-07-08T10:52:24.458Z,27.80
2017-07-08T10:54:51.994Z,27.70
2017-07-08T10:57:20.022Z,27.70
2017-07-08T10:59:47.880Z,27.80
2017-07-08T11:02:15.461Z,27.90
2017-07-08T11:04:43.032Z,27.90
2017-07-08T11:07:10.690Z,27.90
2017-07-08T11:09:38.953Z,28.00
2017-07-08T11:12:09.360Z,28.00
2017-07-08T11:14:37.167Z,28.10
2017-07-08T11:17:08.670Z,27.90
2017-07-08T11:19:36.244Z,27.90
2017-07-08T11:22:03.817Z,28.00
2017-07-08T11:24:31.366Z,28.00
2017-07-08T11:26:58.934Z,28.10
2017-07-08T11:29:26.517Z,28.20
2017-07-08T11:31:54.064Z,28.10
2017-07-08T11:34:21.598Z,28.20
2017-07-08T11:36:49.154Z,28.10
2017-07-08T11:39:16.730Z,28.10
2017-07-08T11:41:44.296Z,28.10
2017-07-08T11:44:11.846Z,28.30
2017-07-08T11:46:39.409Z,28.40
2017-07-08T11:49:07.765Z,28.40
2017-07-08T11:51:35.360Z,28.30
2017-07-08T11:54:02.924Z,28.30
2017-07-08T11:56:30.464Z,28.40
2017-07-08T11:58:58.027Z,28.30
2017-07-08T12:01:25.568Z,28.20
2017-07-08T12:03:53.484Z,28.20
2017-07-08T12:06:21.012Z,28.30
2017-07-08T12:08:48.557Z,28.30
2017-07-08T12:11:16.128Z,28.10
2017-07-08T12:13:43.687Z,27.90
2017-07-08T12:16:11.274Z,28.00
2017-07-08T12:18:38.833Z,28.00
2017-07-08T12:21:06.441Z,28.10
2017-07-08T12:23:33.972Z,28.10
2017-07-08T12:26:01.524Z,28.00
2017-07-08T12:28:29.104Z,28.00
2017-07-08T12:30:56.674Z,27.90
2017-07-08T12:33:24.214Z,27.80
2017-07-08T12:35:51.782Z,27.90
2017-07-08T12:38:19.676Z,27.90
2017-07-08T12:40:47.265Z,28.00
2017-07-08T12:43:14.829Z,28.00
2017-07-08T12:45:42.421Z,28.00
2017-07-08T12:48:09.945Z,28.00
2017-07-08T12:50:37.987Z,28.10
2017-07-08T12:53:05.591Z,28.20
2017-07-08T12:55:33.206Z,28.20
2017-07-08T12:58:00.743Z,28.10
2017-07-08T13:00:28.276Z,28.00
2017-07-08T13:02:55.890Z,28.00
2017-07-08T13:05:23.433Z,27.90
2017-07-08T13:07:50.974Z,27.80
2017-07-08T13:10:18.563Z,28.00
2017-07-08T13:12:46.109Z,27.90
2017-07-08T13:15:13.672Z,28.00
2017-07-08T13:17:41.211Z,27.90
2017-07-08T13:20:08.797Z,27.90
2017-07-08T13:22:36.335Z,27.80
2017-07-08T13:25:03.865Z,27.80
2017-07-08T13:27:31.425Z,28.00
2017-07-08T13:29:58.965Z,28.10
2017-07-08T13:32:26.538Z,28.30
2017-07-08T13:34:54.086Z,28.40
2017-07-08T13:37:21.674Z,28.60
2017-07-08T13:39:49.245Z,28.50
2017-07-08T13:42:16.789Z,28.40
2017-07-08T13:44:44.610Z,28.40
2017-07-08T13:47:12.144Z,28.40
2017-07-08T13:49:39.706Z,28.60
2017-07-08T13:52:07.268Z,28.80
2017-07-08T13:54:34.843Z,29.00
2017-07-08T13:57:02.383Z,29.20
2017-07-08T13:59:30.865Z,29.20
2017-07-08T14:01:58.416Z,29.30
2017-07-08T14:04:28.602Z,29.20
2017-07-08T14:06:56.194Z,29.10
2017-07-08T14:09:23.723Z,29.10
2017-07-08T14:11:51.248Z,29.00
2017-07-08T14:14:18.953Z,29.00
2017-07-08T14:16:46.490Z,29.00
2017-07-08T14:19:14.062Z,29.00
2017-07-08T14:21:41.585Z,29.00
2017-07-08T14:24:09.148Z,28.90
2017-07-08T14:26:36.685Z,28.80
2017-07-08T14:29:04.262Z,28.70
2017-07-08T14:31:31.798Z,28.70
2017-07-08T14:33:59.413Z,28.70
2017-07-08T14:36:26.997Z,28.90
2017-07-08T14:38:56.800Z,28.90
2017-07-08T14:41:24.871Z,28.60
2017-07-08T14:43:53.993Z,28.70
2017-07-08T14:46:21.530Z,28.30
2017-07-08T14:48:49.075Z,28.30
2017-07-08T14:51:16.678Z,28.30
2017-07-08T14:53:44.222Z,28.30
2017-07-08T14:56:12.033Z,28.20
2017-07-08T14:58:39.573Z,28.10
2017-07-08T15:01:07.110Z,28.40
2017-07-08T15:03:34.681Z,28.70
2017-07-08T15:06:02.228Z,29.00
2017-07-08T15:08:29.780Z,29.00
2017-07-08T15:10:57.360Z,28.90
2017-07-08T15:13:24.966Z,29.00
2017-07-08T15:15:52.507Z,29.10
2017-07-08T15:18:20.100Z,29.10
2017-07-08T15:20:47.645Z,29.10
2017-07-08T15:23:15.225Z,29.10
2017-07-08T15:25:42.810Z,29.10
2017-07-08T15:28:10.358Z,29.10
2017-07-08T15:30:37.929Z,29.10
2017-07-08T15:33:05.463Z,28.90
2017-07-08T15:35:33.001Z,28.60
2017-07-08T15:38:00.589Z,28.60
2017-07-08T15:40:28.127Z,28.50
2017-07-08T15:42:55.705Z,28.60
2017-07-08T15:45:23.244Z,28.70
2017-07-08T15:47:50.805Z,28.70
2017-07-08T15:50:18.397Z,28.80
2017-07-08T15:52:45.935Z,28.90
2017-07-08T15:55:13.698Z,29.00
2017-07-08T15:57:41.268Z,28.80
2017-07-08T16:00:09.606Z,28.80
2017-07-08T16:02:37.172Z,28.60
2017-07-08T16:05:04.706Z,28.40
2017-07-08T16:07:32.265Z,28.20
2017-07-08T16:09:59.874Z,28.20
2017-07-08T16:12:27.449Z,28.10
2017-07-08T16:14:55.250Z,28.10
2017-07-08T16:17:22.779Z,28.10
2017-07-08T16:19:50.308Z,28.10
2017-07-08T16:22:17.875Z,28.10
2017-07-08T16:24:45.434Z,27.90
2017-07-08T16:27:13.001Z,27.90
2017-07-08T16:29:41.343Z,27.80
2017-07-08T16:32:08.967Z,27.90
2017-07-08T16:34:36.534Z,27.90
2017-07-08T16:37:04.198Z,27.90
2017-07-08T16:39:31.770Z,27.90
2017-07-08T16:41:59.732Z,27.90
2017-07-08T16:44:28.152Z,27.80
2017-07-08T16:46:55.691Z,27.70
2017-07-08T16:49:23.250Z,27.60
2017-07-08T16:51:52.957Z,27.60
2017-07-08T16:54:20.525Z,27.60
2017-07-08T16:56:48.141Z,27.60
2017-07-08T16:59:16.211Z,27.50
2017-07-08T17:01:43.805Z,27.50
2017-07-08T17:04:11.343Z,27.40
2017-07-08T17:06:38.903Z,27.10
2017-07-08T17:09:07.057Z,27.00
2017-07-08T17:11:34.588Z,26.90
2017-07-08T17:14:02.236Z,26.70
2017-07-08T17:16:29.833Z,26.80
2017-07-08T17:18:57.423Z,26.80
2017-07-08T17:21:24.965Z,26.70
2017-07-08T17:23:52.537Z,26.70
2017-07-08T17:26:20.105Z,26.70
2017-07-08T17:28:47.693Z,26.80
2017-07-08T17:31:15.241Z,26.80
2017-07-08T17:33:42.821Z,26.80
2017-07-08T17:36:10.397Z,26.90
2017-07-08T17:38:37.946Z,26.90
2017-07-08T17:41:05.500Z,26.60
2017-07-08T17:43:33.198Z,26.40
2017-07-08T17:46:00.773Z,26.30
2017-07-08T17:48:28.321Z,26.20
2017-07-08T17:50:55.920Z,26.00
2017-07-08T17:53:23.451Z,26.00
2017-07-08T17:55:50.992Z,25.90
2017-07-08T17:58:18.850Z,26.10
2017-07-08T18:00:46.393Z,25.90
2017-07-08T18:03:13.948Z,25.90
2017-07-08T18:05:42.471Z,25.90
2017-07-08T18:08:10.019Z,25.90
2017-07-08T18:10:37.571Z,25.90
2017-07-08T18:13:05.158Z,25.70
2017-07-08T18:15:32.705Z,25.70
2017-07-08T18:18:00.242Z,25.70
2017-07-08T18:20:27.842Z,25.80
2017-07-08T18:22:55.435Z,25.60
2017-07-08T18:25:23.938Z,25.50
2017-07-08T18:27:51.489Z,25.50
2017-07-08T18:30:19.904Z,25.60
2017-07-08T18:32:47.466Z,25.50
2017-07-08T18:35:17.062Z,25.50
2017-07-08T18:37:44.651Z,25.40
2017-07-08T18:40:12.200Z,25.20
2017-07-08T18:42:39.744Z,25.20
2017-07-08T18:45:07.322Z,25.10
2017-07-08T18:47:34.886Z,25.10
2017-07-08T18:50:02.734Z,25.10
2017-07-08T18:52:30.874Z,25.00
2017-07-08T18:54:58.426Z,24.90
2017-07-08T18:57:26.054Z,24.70
2017-07-08T18:59:53.589Z,24.70
2017-07-08T19:02:21.139Z,24.70
2017-07-08T19:04:48.715Z,24.70
2017-07-08T19:07:16.293Z,24.70
2017-07-08T19:09:43.841Z,24.70
2017-07-08T19:12:11.438Z,24.60
2017-07-08T19:14:38.977Z,24.50
2017-07-08T19:17:06.578Z,24.40
2017-07-08T19:19:34.192Z,24.40
2017-07-08T19:22:01.738Z,24.30
2017-07-08T19:24:29.332Z,24.40
2017-07-08T19:26:56.894Z,24.40
2017-07-08T19:29:24.437Z,24.40
2017-07-08T19:31:52.027Z,24.30
2017-07-08T19:34:19.583Z,24.30
2017-07-08T19:36:47.191Z,24.10
2017-07-08T19:39:14.773Z,24.10
2017-07-08T19:41:42.306Z,24.10
2017-07-08T19:44:09.852Z,24.10
2017-07-08T19:46:37.435Z,24.00
2017-07-08T19:49:04.989Z,23.90
2017-07-08T19:51:32.563Z,23.80
2017-07-08T19:54:00.106Z,23.60
2017-07-08T19:56:27.671Z,23.50
2017-07-08T19:58:55.242Z,23.30
2017-07-08T20:01:22.789Z,23.30
2017-07-08T20:03:50.373Z,23.20
2017-07-08T20:06:17.919Z,23.20
2017-07-08T20:08:45.470Z,23.20
2017-07-08T20:11:13.056Z,23.20
2017-07-08T20:13:40.682Z,22.90
2017-07-08T20:16:08.222Z,22.80
2017-07-08T20:18:35.797Z,22.80
2017-07-08T20:21:03.333Z,22.80
2017-07-08T20:23:30.921Z,22.80
2017-07-08T20:25:58.528Z,22.60
2017-07-08T20:28:26.073Z,22.50
2017-07-08T20:30:54.565Z,22.50
2017-07-08T20:33:22.131Z,22.40
2017-07-08T20:35:49.671Z,22.40
2017-07-08T20:38:17.267Z,22.40
2017-07-08T20:40:44.815Z,22.30
2017-07-08T20:43:12.352Z,22.20
2017-07-08T20:45:39.929Z,22.10
2017-07-08T20:48:07.704Z,22.10
2017-07-08T20:50:35.273Z,22.10
2017-07-08T20:53:02.857Z,21.90
2017-07-08T20:55:30.409Z,21.80
2017-07-08T20:57:57.962Z,21.70
2017-07-08T21:00:25.533Z,21.70
2017-07-08T21:02:53.115Z,21.60
2017-07-08T21:05:20.680Z,21.50
2017-07-08T21:07:48.223Z,21.40
2017-07-08T21:10:15.800Z,21.50
2017-07-08T21:12:43.346Z,21.50
2017-07-08T21:15:10.950Z,21.40
2017-07-08T21:17:38.542Z,21.30
2017-07-08T21:20:06.438Z,21.40
2017-07-08T21:22:33.996Z,21.20
2017-07-08T21:25:01.533Z,21.00
2017-07-08T21:27:29.119Z,21.10
2017-07-08T21:29:56.658Z,21.10
2017-07-08T21:32:24.226Z,21.10
2017-07-08T21:34:51.806Z,21.10
2017-07-08T21:37:20.681Z,21.10
2017-07-08T21:39:48.276Z,21.00
2017-07-08T21:42:16.431Z,21.00
2017-07-08T21:44:43.976Z,21.00
2017-07-08T21:47:11.560Z,20.90
2017-07-08T21:49:39.137Z,20.80
2017-07-08T21:52:06.702Z,20.70
2017-07-08T21:54:37.069Z,20.70
2017-07-08T21:57:04.619Z,20.60
2017-07-08T21:59:32.163Z,20.60
2017-07-08T22:01:59.730Z,20.70
2017-07-08T22:04:27.310Z,20.60
2017-07-08T22:06:54.885Z,20.50
2017-07-08T22:09:22.459Z,20.40
2017-07-08T22:11:50.033Z,20.30
2017-07-08T22:14:17.596Z,20.30
2017-07-08T22:16:45.147Z,20.30
2017-07-08T22:19:12.728Z,20.30
2017-07-08T22:21:40.358Z,20.40
2017-07-08T22:24:07.938Z,20.40
2017-07-08T22:26:35.475Z,20.40
2017-07-08T22:29:03.052Z,20.30
2017-07-08T22:31:30.626Z,20.40
2017-07-08T22:33:58.165Z,20.40
2017-07-08T22:36:25.714Z,20.40
2017-07-08T22:38:53.298Z,20.50
2017-07-08T22:41:20.838Z,20.50
2017-07-08T22:43:48.420Z,20.40
2017-07-08T22:46:17.738Z,20.40
2017-07-08T22:48:45.289Z,20.30
2017-07-08T22:51:12.879Z,20.40
2017-07-08T22:53:40.447Z,20.40
2017-07-08T22:56:08.027Z,20.30
2017-07-08T22:58:35.622Z,20.30
2017-07-08T23:01:03.961Z,20.30
2017-07-08T23:03:31.498Z,20.30
2017-07-08T23:05:59.089Z,20.10
2017-07-08T23:08:26.875Z,20.10
2017-07-08T23:10:54.436Z,20.00
2017-07-08T23:13:22.002Z,20.10
2017-07-08T23:15:49.543Z,20.00
2017-07-08T23:18:17.076Z,20.00
2017-07-08T23:20:44.672Z,20.10
2017-07-08T23:23:12.213Z,20.10
2017-07-08T23:25:40.565Z,20.10
2017-07-08T23:28:08.134Z,20.00
2017-07-08T23:30:35.687Z,19.90
2017-07-08T23:33:03.294Z,19.90
2017-07-08T23:35:30.835Z,19.90
2017-07-08T23:37:58.369Z,19.90
2017-07-08T23:40:25.938Z,19.90
2017-07-08T23:42:53.509Z,19.90
2017-07-08T23:45:21.080Z,19.70
2017-07-08T23:47:48.636Z,19.60
2017-07-08T23:50:16.186Z,19.60
2017-07-08T23:52:43.754Z,19.50
2017-07-08T23:55:11.286Z,19.40
2017-07-08T23:57:38.869Z,19.40
